Garden Valley, TX

2:58 AM CDT on September 02, 2015 (GMT -0500)
Oak Hills | | Change Station
CLOSE
Current Station
Personal Weather Station
Location: Lindale, TX
Elevation: 554 ft
Nearby Weather Stations

Elev 554 ft 32.56 °N, 95.47 °W | Updated 1 second ago

Clear
Clear
71.8 °F
Feels Like 71.8 °F
N
2.9
Wind Variable Wind from SE
Gusts 3.0 mph

Today
High -- | Low -- °F
--% Chance of Precip.
Yesterday
High -- | Low -- °F
Precip. -- in
6:57 AM 7:45 PM
Waning Gibbous, 82% visible
Pressure 30.04 in
Visibility 10.0 miles
Clouds Clear
Dew Point 69 °F
Humidity 92%
Rainfall 0.00 in
Snow Depth Not available.
UV 0 out of 12
Pollen 8.70 out of 12
Air Quality Not available.
Flu Activity Not available.
METAR KTYR 020753Z 21005KT 10SM CLR 23/20 A3006 RMK AO2 SLP171 T02280200
Pressure 30.04 in
Visibility 10.0 miles
Clouds Clear
Dew Point 69 °F
Humidity 92%
Rainfall 0.00 in
Snow Depth Not available.
UV 0 out of 12
Pollen 8.70 out of 12
Air Quality Not available.
Flu Activity Not available.
METAR KTYR 020753Z 21005KT 10SM CLR 23/20 A3006 RMK AO2 SLP171 T02280200

10-Day Weather Forecast

×

Almanac

Astronomy

Sep. 02, 2015 Rise Set
Actual Time
Civil Twilight
Nautical Twilight
Astronomical Twilight
Moon
Length of Visible Light
Length of Day
Tomorrow will be .
, % of the Moon is Illuminated

Today's Extremes

State Highs State Lows

Community

WunderPhotos

Upload Photos

1,851,723 photos uploaded!

WunderBlogs® & News

Nearby

Air Quality

  Air Quality AQ Index Pollutant
Not available.

Snow Depth

Station Depth Elevation

Earthquake Activity

City Distance Mag. Time & Date
Minimum magnitude displayed is 2.5.

Coastal Water Temperatures

Place Temperature

Stations

Nearby Weather Stations

Station Location Temp. Windchill Dew Point Humidity Wind Precip. Elev Updated Type